Map

Track Data

SID SEASON NUMBER BASIN SUBBASIN NAME ISO_TIME NATURE LAT LON WMO_WIND WMO_PRES WMO_AGENCY TRACK_TYPE DIST2LAND LANDFALL IFLAG USA_AGENCY USA_ATCF_ID USA_LAT USA_LON USA_RECORD USA_STATUS USA_WIND USA_PRES USA_SSHS USA_R34_NE USA_R34_SE USA_R34_SW USA_R34_NW USA_R50_NE USA_R50_SE USA_R50_SW USA_R50_NW USA_R64_NE USA_R64_SE USA_R64_SW USA_R64_NW USA_POCI USA_ROCI USA_RMW USA_EYE TOKYO_LAT TOKYO_LON TOKYO_GRADE TOKYO_WIND TOKYO_PRES TOKYO_R50_DIR TOKYO_R50_LONG TOKYO_R50_SHORT TOKYO_R30_DIR TOKYO_R30_LONG TOKYO_R30_SHORT TOKYO_LAND CMA_LAT CMA_LON CMA_CAT CMA_WIND CMA_PRES HKO_LAT HKO_LON HKO_CAT HKO_WIND HKO_PRES NEWDELHI_LAT NEWDELHI_LON NEWDELHI_GRADE NEWDELHI_WIND NEWDELHI_PRES NEWDELHI_CI NEWDELHI_DP NEWDELHI_POCI REUNION_LAT REUNION_LON REUNION_TYPE REUNION_WIND REUNION_PRES REUNION_TNUM REUNION_CI REUNION_RMW REUNION_R34_NE REUNION_R34_SE REUNION_R34_SW REUNION_R34_NW REUNION_R50_NE REUNION_R50_SE REUNION_R50_SW REUNION_R50_NW REUNION_R64_NE REUNION_R64_SE REUNION_R64_SW REUNION_R64_NW BOM_LAT BOM_LON BOM_TYPE BOM_WIND BOM_PRES BOM_TNUM BOM_CI BOM_RMW BOM_R34_NE BOM_R34_SE BOM_R34_SW BOM_R34_NW BOM_R50_NE BOM_R50_SE BOM_R50_SW BOM_R50_NW BOM_R64_NE BOM_R64_SE BOM_R64_SW BOM_R64_NW BOM_ROCI BOM_POCI BOM_EYE BOM_POS_METHOD BOM_PRES_METHOD NADI_LAT NADI_LON NADI_CAT NADI_WIND NADI_PRES WELLINGTON_LAT WELLINGTON_LON WELLINGTON_WIND WELLINGTON_PRES DS824_LAT DS824_LON DS824_STAGE DS824_WIND DS824_PRES TD9636_LAT TD9636_LON TD9636_STAGE TD9636_WIND TD9636_PRES TD9635_LAT TD9635_LON TD9635_WIND TD9635_PRES TD9635_ROCI NEUMANN_LAT NEUMANN_LON NEUMANN_CLASS NEUMANN_WIND NEUMANN_PRES MLC_LAT MLC_LON MLC_CLASS MLC_WIND MLC_PRES USA_GUST BOM_GUST BOM_GUST_PER REUNION_GUST REUNION_GUST_PER USA_SEAHGT USA_SEARAD_NE USA_SEARAD_SE USA_SEARAD_SW USA_SEARAD_NW STORM_SPEED STORM_DIR
1947011S10175 1947 1 SP MM NOT_NAMED 1947-01-11 00:00:00 TS -10.0000 175.000 main 840 840 O________OO___ jtwc_sh SH071947 -10.0000 175.000 -1 -10.0000 175.000 TC -10.0000 175.000 2 7 253
1947011S10175 1947 1 SP MM NOT_NAMED 1947-01-11 03:00:00 TS -10.1017 174.654 main 845 845 P________PP___ SH071947 -10.0876 174.648 -1 -10.0876 174.648 TC -10.1299 174.666 2 7 252
1947011S10175 1947 1 SP MM NOT_NAMED 1947-01-11 06:00:00 TS -10.2192 174.308 main 857 854 O________OP___ jtwc_sh SH071947 -10.2000 174.300 -1 -10.2000 174.300 TC -10.2577 174.325 2 7 249
1947011S10175 1947 1 SP MM NOT_NAMED 1947-01-11 09:00:00 TS -10.3605 173.962 main 856 856 P________PP___ SH071947 -10.3499 173.958 -1 -10.3499 173.958 TC -10.3816 173.972 2 8 248
1947011S10175 1947 1 SP MM NOT_NAMED 1947-01-11 12:00:00 TS -10.5000 173.600 main 866 824 O________OO___ jtwc_sh SH071947 -10.5000 173.600 -1 -10.5000 173.600 TC -10.5000 173.600 2 8 252
1947011S10175 1947 1 SP MM NOT_NAMED 1947-01-11 15:00:00 TS -10.6043 173.207 main 824 783 P________PP___ SH071947 -10.6000 173.207 -1 -10.6000 173.207 TC -10.6128 173.206 2 8 255
1947011S10175 1947 1 SP MM NOT_NAMED 1947-01-11 18:00:00 TS -10.7092 172.800 main 783 742 O________OP___ jtwc_sh SH071947 -10.7000 172.800 -1 -10.7000 172.800 TC -10.7275 172.800 2 8 253
1947011S10175 1947 1 SP MM NOT_NAMED 1947-01-11 21:00:00 TS -10.8461 172.393 main 742 694 P________PP___ SH071947 -10.8425 172.393 -1 -10.8425 172.393 TC -10.8534 172.394 2 8 250
1947011S10175 1947 1 SP MM NOT_NAMED 1947-01-12 00:00:00 TS -11.0000 172.000 main 694 662 O________OO___ jtwc_sh SH071947 -11.0000 172.000 -1 -11.0000 172.000 TC -11.0000 172.000 2 8 248
1947011S10175 1947 1 SP MM NOT_NAMED 1947-01-12 03:00:00 TS -11.1439 171.643 main 654 615 P________PP___ SH071947 -11.1349 171.642 -1 -11.1349 171.642 TC -11.1619 171.643 2 8 245
1947011S10175 1947 1 SP MM NOT_NAMED 1947-01-12 06:00:00 TS -11.3157 171.300 main 615 576 O________OP___ jtwc_sh SH071947 -11.3000 171.300 -1 -11.3000 171.300 TC -11.3471 171.300 2 8 239
1947011S10175 1947 1 SP MM NOT_NAMED 1947-01-12 09:00:00 TS -11.5379 170.962 main 576 521 P________PP___ SH071947 -11.5274 170.965 -1 -11.5274 170.965 TC -11.5588 170.956 2 8 235
1947011S10175 1947 1 SP MM NOT_NAMED 1947-01-12 12:00:00 TS -11.8000 170.600 main 521 466 O________OO___ jtwc_sh SH071947 -11.8000 170.600 -1 -11.8000 170.600 TC -11.8000 170.600 2 10 235
1947011S10175 1947 1 SP MM NOT_NAMED 1947-01-12 15:00:00 TS -12.0842 170.163 main 466 404 P________PP___ SH071947 -12.0926 170.150 -1 -12.0926 170.150 TC -12.0673 170.190 2 10 236
1947011S10175 1947 1 SP MM NOT_NAMED 1947-01-12 18:00:00 TS -12.3876 169.723 main 404 357 O________OP___ jtwc_sh SH071947 -12.4000 169.700 -1 -12.4000 169.700 TC -12.3628 169.770 2 10 233
1947011S10175 1947 1 SP MM NOT_NAMED 1947-01-12 21:00:00 TS -12.6872 169.335 main 350 303 P________PP___ SH071947 -12.6924 169.320 -1 -12.6924 169.320 TC -12.6768 169.365 2 9 229
1947011S10175 1947 1 SP MM NOT_NAMED 1947-01-13 00:00:00 TS -13.0000 169.000 main 303 256 O________OO___ jtwc_sh SH071947 -13.0000 169.000 -1 -13.0000 169.000 TC -13.0000 169.000 2 9 222
1947011S10175 1947 1 SP MM NOT_NAMED 1947-01-13 03:00:00 TS -13.3418 168.725 main 256 209 P________PP___ SH071947 -13.3499 168.735 -1 -13.3499 168.735 TC -13.3256 168.707 2 9 216
1947011S10175 1947 1 SP MM NOT_NAMED 1947-01-13 06:00:00 TS -13.6857 168.485 main 209 170 O________OP___ jtwc_sh SH071947 -13.7000 168.500 -1 -13.7000 168.500 TC -13.6571 168.455 2 8 216
1947011S10175 1947 1 SP MM NOT_NAMED 1947-01-13 09:00:00 TS -14.0000 168.242 main 163 124 P________PP___ SH071947 -14.0075 168.250 -1 -14.0075 168.250 TC -13.9850 168.225 2 8 217
1947011S10175 1947 1 SP MM NOT_NAMED 1947-01-13 12:00:00 TS -14.3000 168.000 main 124 87 O________OO___ jtwc_sh SH071947 -14.3000 168.000 -1 -14.3000 168.000 TC -14.3000 168.000 2 8 218
1947011S10175 1947 1 SP MM NOT_NAMED 1947-01-13 15:00:00 TS -14.6027 167.754 main 87 44 P________PP___ SH071947 -14.6075 167.750 -1 -14.6075 167.750 TC -14.5932 167.762 2 8 219
1947011S10175 1947 1 SP MM NOT_NAMED 1947-01-13 18:00:00 TS -14.8907 167.507 main 44 21 O________OP___ jtwc_sh SH071947 -14.9000 167.500 -1 -14.9000 167.500 TC -14.8722 167.522 2 7 221
1947011S10175 1947 1 SP MM NOT_NAMED 1947-01-13 21:00:00 TS -15.1517 167.262 main 21 0 P________PP___ SH071947 -15.1574 167.257 -1 -15.1574 167.257 TC -15.1401 167.271 2 7 224
1947011S10175 1947 1 SP MM NOT_NAMED 1947-01-14 00:00:00 TS -15.4000 167.000 main 0 0 O________OO___ jtwc_sh SH071947 -15.4000 167.000 -1 -15.4000 167.000 TC -15.4000 167.000 2 7 227
1947011S10175 1947 1 SP MM NOT_NAMED 1947-01-14 03:00:00 TS -15.6510 166.707 main 10 10 P________PP___ SH071947 -15.6500 166.715 -1 -15.6500 166.715 TC -15.6532 166.692 2 8 230
1947011S10175 1947 1 SP MM NOT_NAMED 1947-01-14 06:00:00 TS -15.9000 166.388 main 48 48 O________OP___ jtwc_sh SH071947 -15.9000 166.400 -1 -15.9000 166.400 TC -15.9001 166.365 2 8 232
1947011S10175 1947 1 SP MM NOT_NAMED 1947-01-14 09:00:00 TS -16.1490 166.043 main 96 96 P________PP___ SH071947 -16.1500 166.050 -1 -16.1500 166.050 TC -16.1469 166.030 2 8 233
1947011S10175 1947 1 SP MM NOT_NAMED 1947-01-14 12:00:00 TS -16.4000 165.700 main 141 141 O________OO___ jtwc_sh SH071947 -16.4000 165.700 -1 -16.4000 165.700 TC -16.4000 165.700 2 8 232
1947011S10175 1947 1 SP MM NOT_NAMED 1947-01-14 15:00:00 TS -16.6454 165.388 main 180 180 P________PP___ SH071947 -16.6424 165.392 -1 -16.6424 165.392 TC -16.6515 165.380 2 8 229
1947011S10175 1947 1 SP MM NOT_NAMED 1947-01-14 18:00:00 TS -16.9042 165.090 main 225 225 O________OP___ jtwc_sh SH071947 -16.9000 165.100 -1 -16.9000 165.100 TC -16.9124 165.070 2 8 227
1947011S10175 1947 1 SP MM NOT_NAMED 1947-01-14 21:00:00 TS -17.1874 164.786 main 271 271 P________PP___ SH071947 -17.1850 164.792 -1 -17.1850 164.792 TC -17.1922 164.774 2 8 223
1947011S10175 1947 1 SP MM NOT_NAMED 1947-01-15 00:00:00 TS -17.5000 164.500 main 304 269 O________OO___ jtwc_sh SH071947 -17.5000 164.500 -1 -17.5000 164.500 TC -17.5000 164.500 2 8 219
1947011S10175 1947 1 SP MM NOT_NAMED 1947-01-15 03:00:00 TS -17.8455 164.237 main 268 223 P________PP___ SH071947 -17.8350 164.235 -1 -17.8350 164.235 TC -17.8664 164.241 2 9 213
1947011S10175 1947 1 SP MM NOT_NAMED 1947-01-15 06:00:00 TS -18.2191 164.002 main 223 181 O________OP___ jtwc_sh SH071947 -18.2000 164.000 -1 -18.2000 164.000 TC -18.2574 164.005 2 9 209
1947011S10175 1947 1 SP MM NOT_NAMED 1947-01-15 09:00:00 TS -18.6249 163.787 main 181 144 P________PP___ SH071947 -18.6150 163.785 -1 -18.6150 163.785 TC -18.6446 163.791 2 9 206
1947011S10175 1947 1 SP MM NOT_NAMED 1947-01-15 12:00:00 TS -19.0000 163.600 main 144 124 O________OO___ jtwc_sh SH071947 -19.0000 163.600 -1 -19.0000 163.600 TC -19.0000 163.600 2 7 207
1947011S10175 1947 1 SP MM NOT_NAMED 1947-01-15 15:00:00 TS -19.2742 163.435 main 124 114 P________PP___ SH071947 -19.2725 163.442 -1 -19.2725 163.442 TC -19.2777 163.420 2 6 210
1947011S10175 1947 1 SP MM NOT_NAMED 1947-01-15 18:00:00 TS -19.5075 163.287 main 114 107 O________OP___ jtwc_sh SH071947 -19.5000 163.300 -1 -19.5000 163.300 TC -19.5224 163.262 2 6 211
1947011S10175 1947 1 SP MM NOT_NAMED 1947-01-15 21:00:00 TS -19.7470 163.136 main 115 104 P________PP___ SH071947 -19.7425 163.142 -1 -19.7425 163.142 TC -19.7559 163.123 2 6 209
1947011S10175 1947 1 SP MM NOT_NAMED 1947-01-16 00:00:00 TS -20.0000 163.000 main 109 106 O________OO___ jtwc_sh SH071947 -20.0000 163.000 -1 -20.0000 163.000 TC -20.0000 163.000 2 6 203
1947011S10175 1947 1 SP MM NOT_NAMED 1947-01-16 03:00:00 TS -20.2915 162.889 main 114 114 P________PP___ SH071947 -20.2925 162.892 -1 -20.2925 162.892 TC -20.2896 162.881 2 6 198
1947011S10175 1947 1 SP MM NOT_NAMED 1947-01-16 06:00:00 TS -20.5975 162.792 main 129 129 O________OP___ jtwc_sh SH071947 -20.6000 162.800 -1 -20.6000 162.800 TC -20.5924 162.777 2 6 197
1947011S10175 1947 1 SP MM NOT_NAMED 1947-01-16 09:00:00 TS -20.8997 162.690 main 151 151 P________PP___ SH071947 -20.9000 162.693 -1 -20.9000 162.693 TC -20.8990 162.685 2 6 197
1947011S10175 1947 1 SP MM NOT_NAMED 1947-01-16 12:00:00 TS -21.2000 162.600 main 176 176 O________OO___ jtwc_sh SH071947 -21.2000 162.600 -1 -21.2000 162.600 TC -21.2000 162.600 2 6 193
1947011S10175 1947 1 SP MM NOT_NAMED 1947-01-16 15:00:00 TS -21.4977 162.539 main 205 205 P________PP___ SH071947 -21.5075 162.550 -1 -21.5075 162.550 TC -21.4781 162.518 2 6 191
1947011S10175 1947 1 SP MM NOT_NAMED 1947-01-16 18:00:00 TS -21.7833 162.481 main 226 226 O________OP___ jtwc_sh SH071947 -21.8000 162.500 -1 -21.8000 162.500 TC -21.7500 162.442 2 6 194
1947011S10175 1947 1 SP MM NOT_NAMED 1947-01-16 21:00:00 TS -22.0406 162.390 main 246 246 P________PP___ SH071947 -22.0500 162.400 -1 -22.0500 162.400 TC -22.0218 162.371 2 5 198
1947011S10175 1947 1 SP MM NOT_NAMED 1947-01-17 00:00:00 TS -22.3000 162.300 main 274 274 O________OO___ jtwc_sh SH071947 -22.3000 162.300 -1 -22.3000 162.300 TC -22.3000 162.300 2 6 195
1947011S10175 1947 1 SP MM NOT_NAMED 1947-01-17 03:00:00 TS -22.5885 162.238 main 303 303 P________PP___ SH071947 -22.5925 162.250 -1 -22.5925 162.250 TC -22.5806 162.213 2 6 190
1947011S10175 1947 1 SP MM NOT_NAMED 1947-01-17 06:00:00 TS -22.8900 162.176 main 324 324 O________OP___ jtwc_sh SH071947 -22.9000 162.200 -1 -22.9000 162.200 TC -22.8700 162.128 2 6 194
1947011S10175 1947 1 SP MM NOT_NAMED 1947-01-17 09:00:00 TS -23.1965 162.080 main 351 351 P________PP___ SH071947 -23.2075 162.093 -1 -23.2075 162.093 TC -23.1744 162.054 2 6 195
1947011S10175 1947 1 SP MM NOT_NAMED 1947-01-17 12:00:00 TS -23.5000 162.000 main 379 379 O________OO___ jtwc_sh SH071947 -23.5000 162.000 -1 -23.5000 162.000 TC -23.5000 162.000 2 6 189
1947011S10175 1947 1 SP MM NOT_NAMED 1947-01-17 15:00:00 TS -23.7442 161.985 main 393 393 P________PP___ SH071947 -23.7200 161.985 -1 -23.7200 161.985 TC -23.7926 161.986 2 5 0
1947011S10175 1947 1 SP MM NOT_NAMED 1947-01-17 18:00:00 TS -24.0384 161.997 main 415 415 O________OP___ jtwc_sh SH071947 -24.0000 162.000 -1 -24.0000 162.000 TC -24.1151 161.992 2 7 179
1947011S10175 1947 1 SP MM NOT_NAMED 1947-01-17 21:00:00 TS -24.4517 162.005 main 456 456 P________PP___ SH071947 -24.4250 162.007 -1 -24.4250 162.007 TC -24.5051 162.002 2 10 179
1947011S10175 1947 1 SP MM NOT_NAMED 1947-01-18 00:00:00 TS -25.0000 162.000 main 499 499 O________OO___ jtwc_sh SH071947 -25.0000 162.000 -1 -25.0000 162.000 TC -25.0000 162.000 2 12 182
1947011S10175 1947 1 SP MM NOT_NAMED 1947-01-18 03:00:00 TS -25.6891 161.961 main 564 564 P________PP___ SH071947 -25.7125 161.958 -1 -25.7125 161.958 TC -25.6423 161.969 2 15 183
1947011S10175 1947 1 SP MM NOT_NAMED 1947-01-18 06:00:00 TS -26.4626 161.908 main 646 646 O________OP___ jtwc_sh SH071947 -26.5000 161.900 -1 -26.5000 161.900 TC -26.3877 161.923 2 16 184
1947011S10175 1947 1 SP MM NOT_NAMED 1947-01-18 09:00:00 TS -27.2298 161.855 main 710 710 P________PP___ SH071947 -27.2500 161.850 -1 -27.2500 161.850 TC -27.1893 161.865 2 15 184
1947011S10175 1947 1 SP MM NOT_NAMED 1947-01-18 12:00:00 TS -28.0000 161.800 main 786 786 O________OO___ jtwc_sh SH071947 -28.0000 161.800 -1 -28.0000 161.800 TC -28.0000 161.800 2 15 184
1947011S10175 1947 1 SP MM NOT_NAMED 1947-01-18 15:00:00 TS -28.7608 161.748 main 787 786 P________PP___ SH071947 -28.7500 161.757 -1 -28.7500 161.757 TC -28.7826 161.730 2 15 184
1947011S10175 1947 1 SP MM NOT_NAMED 1947-01-18 18:00:00 TS -29.5124 161.685 main 787 781 O________OP___ jtwc_sh SH071947 -29.5000 161.700 -1 -29.5000 161.700 TC -29.5372 161.656 2 15 185
1947011S10175 1947 1 SP MM NOT_NAMED 1947-01-18 21:00:00 TS -30.2578 161.600 main 787 787 P________PP___ SH071947 -30.2500 161.610 -1 -30.2500 161.610 TC -30.2733 161.579 2 15 186
1947011S10175 1947 1 SP MM NOT_NAMED 1947-01-19 00:00:00 TS -31.0000 161.500 main 794 O________OO___ jtwc_sh SH071947 -31.0000 161.500 -1 -31.0000 161.500 TC -31.0000 161.500 2 15 187

Digital Typhoon Data and Search

About IBTrACS Database

This database is a web-friendly format of International Best Track Archive for Climate Stewardship (IBTrACS), a global best track data archive curated by NOAA dating back to 1842.

Updated: 2021-10-21